TimePDT,TemperatureF,Dew PointF,Humidity,Sea Level PressureIn,VisibilityMPH,Wind Direction,Wind SpeedMPH,Gust SpeedMPH,PrecipitationIn,Events,Conditions,WindDirDegrees,DateUTC
12:53 AM,90.0,48.0,24,29.62,10.0,WNW,3.5,-,N/A,,Clear,300,2013-09-15 07:53:00
1:53 AM,88.0,48.9,26,29.63,10.0,NW,3.5,-,N/A,,Clear,310,2013-09-15 08:53:00
2:53 AM,86.0,48.0,27,29.63,10.0,WNW,5.8,-,N/A,,Clear,300,2013-09-15 09:53:00
3:53 AM,84.9,46.0,26,29.64,10.0,North,8.1,-,N/A,,Clear,350,2013-09-15 10:53:00
4:53 AM,81.0,52.0,36,29.65,10.0,WNW,3.5,-,N/A,,Clear,300,2013-09-15 11:53:00
5:53 AM,86.0,46.9,26,29.66,10.0,NNW,9.2,-,N/A,,Clear,340,2013-09-15 12:53:00
6:53 AM,84.0,46.9,27,29.68,10.0,NNW,6.9,-,N/A,,Clear,330,2013-09-15 13:53:00
7:53 AM,88.0,46.9,24,29.69,10.0,NW,5.8,-,N/A,,Clear,310,2013-09-15 14:53:00
8:53 AM,93.0,46.9,20,29.70,10.0,SSW,3.5,-,N/A,,Clear,210,2013-09-15 15:53:00
9:53 AM,97.0,45.0,17,29.70,10.0,Calm,Calm,-,N/A,,Clear,0,2013-09-15 16:53:00
10:53 AM,102.0,44.1,14,29.70,10.0,Variable,3.5,-,N/A,,Partly Cloudy,0,2013-09-15 17:53:00
11:53 AM,104.0,41.0,12,29.69,10.0,SSE,5.8,-,N/A,,Scattered Clouds,160,2013-09-15 18:53:00
12:53 PM,107.1,44.1,12,29.67,10.0,SE,11.5,-,N/A,,Clear,130,2013-09-15 19:53:00
1:53 PM,109.0,45.0,12,29.65,10.0,SE,13.8,-,N/A,,Scattered Clouds,130,2013-09-15 20:53:00
2:53 PM,108.0,45.0,12,29.64,10.0,ESE,15.0,-,N/A,,Clear,120,2013-09-15 21:53:00
3:53 PM,108.0,45.0,12,29.62,10.0,ESE,15.0,-,N/A,,Scattered Clouds,120,2013-09-15 22:53:00
4:53 PM,107.1,41.0,11,29.62,10.0,East,12.7,-,N/A,,Clear,100,2013-09-15 23:53:00
5:53 PM,105.1,41.0,11,29.62,10.0,ESE,9.2,-,N/A,,Clear,120,2013-09-16 00:53:00
6:53 PM,102.9,43.0,13,29.63,10.0,East,3.5,-,N/A,,Clear,90,2013-09-16 01:53:00
7:53 PM,100.9,45.0,15,29.65,10.0,North,9.2,18.4,N/A,,Clear,360,2013-09-16 02:53:00
8:53 PM,97.0,46.9,18,29.67,10.0,WNW,4.6,-,N/A,,Clear,300,2013-09-16 03:53:00
9:53 PM,93.0,48.0,21,29.69,10.0,Calm,Calm,-,N/A,,Clear,0,2013-09-16 04:53:00
10:53 PM,91.9,45.0,20,29.69,10.0,Variable,3.5,-,N/A,,Clear,0,2013-09-16 05:53:00
11:53 PM,88.0,48.9,26,29.70,10.0,Calm,Calm,-,N/A,,Clear,0,2013-09-16 06:53:00